Time;durP1;ratioP1;P1;durP2;ratioP2;P2;SDS_P1;SDS_P2;PMS_P1;PMS_P2;Temp;Humidity;BMP_temperature;BMP_pressure;BME280_temperature;BME280_humidity;BME280_pressure;Samples;Min_cycle;Max_cycle;Signal;HPM_P1;HPM_P2
2022/08/06 00:00:33;;;;;;;3.03;1.33;;;16.70;99.90;;;;;;6119985;23;20210;-91
2022/08/06 00:03:03;;;;;;;4.90;1.20;;;16.60;99.90;;;;;;6146771;23;20136;-90
2022/08/06 00:05:47;;;;;;;4.43;1.40;;;16.60;99.90;;;;;;6111959;23;20150;-88
2022/08/06 00:08:13;;;;;;;7.23;1.77;;;16.70;99.90;;;;;;6110742;23;20158;-93
2022/08/06 00:10:39;;;;;;;3.57;1.10;;;16.70;99.90;;;;;;6114174;23;20172;-96
2022/08/06 00:13:21;;;;;;;5.40;1.67;;;16.60;99.90;;;;;;6114527;23;20178;-96
2022/08/06 00:15:49;;;;;;;4.23;1.20;;;16.60;99.90;;;;;;6145180;23;20149;-96
2022/08/06 00:18:21;;;;;;;5.13;1.83;;;16.60;99.90;;;;;;6127734;23;20141;-95
2022/08/06 00:20:59;;;;;;;3.00;1.10;;;16.50;99.90;;;;;;6154037;23;20182;-96
2022/08/06 00:23:33;;;;;;;4.50;1.53;;;16.40;99.90;;;;;;6103710;23;20147;-96
2022/08/06 00:26:09;;;;;;;4.30;1.60;;;16.60;99.90;;;;;;6145762;23;20135;-89
2022/08/06 00:28:52;;;;;;;5.47;1.60;;;17.00;99.90;;;;;;6154498;23;20150;-90
2022/08/06 00:31:25;;;;;;;6.67;1.80;;;16.90;99.90;;;;;;6105904;23;20182;-95
2022/08/06 00:33:55;;;;;;;3.37;1.50;;;17.10;99.90;;;;;;6153979;23;20217;-95
2022/08/06 00:36:37;;;;;;;5.27;1.67;;;16.90;99.90;;;;;;6151872;23;20172;-89
2022/08/06 00:39:38;;;;;;;4.60;1.60;;;16.80;99.90;;;;;;6116439;23;20179;-93
2022/08/06 00:42:22;;;;;;;5.00;1.50;;;16.70;99.90;;;;;;6117766;23;20159;-90
2022/08/06 00:45:00;;;;;;;3.23;1.33;;;16.60;99.90;;;;;;6120979;23;20157;-90
2022/08/06 00:47:41;;;;;;;5.90;1.50;;;16.50;99.90;;;;;;6129168;23;20146;-90
2022/08/06 00:50:09;;;;;;;3.87;1.27;;;16.30;99.90;;;;;;6151265;23;20150;-89
2022/08/06 00:52:46;;;;;;;4.67;1.47;;;16.30;1.00;;;;;;6119076;23;20171;-93
2022/08/06 00:55:28;;;;;;;7.30;1.90;;;16.30;1.00;;;;;;6116215;23;20182;-91
2022/08/06 00:58:13;;;;;;;6.97;1.77;;;16.20;1.00;;;;;;6114828;23;20155;-93
2022/08/06 01:00:56;;;;;;;3.67;1.43;;;16.30;1.00;;;;;;6114121;23;20222;-93
2022/08/06 01:03:24;;;;;;;4.43;1.70;;;16.40;1.00;;;;;;6114330;23;20151;-95
2022/08/06 01:05:51;;;;;;;4.77;1.40;;;16.30;1.00;;;;;;6090115;23;20159;-92
2022/08/06 01:08:22;;;;;;;5.10;1.40;;;16.30;1.00;;;;;;6117873;23;20181;-96
2022/08/06 01:10:54;;;;;;;5.97;1.77;;;16.30;1.00;;;;;;6115994;23;20179;-92
2022/08/06 01:13:22;;;;;;;6.03;1.73;;;16.30;1.00;;;;;;6115468;23;20608;-94
2022/08/06 01:16:08;;;;;;;3.57;1.40;;;16.10;1.00;;;;;;6139905;23;20146;-94
2022/08/06 01:18:50;;;;;;;5.17;1.70;;;16.00;1.00;;;;;;6094753;23;20183;-93
2022/08/06 01:21:51;;;;;;;4.73;1.43;;;16.00;1.00;;;;;;6119011;23;20574;-91
2022/08/06 01:24:58;;;;;;;4.37;1.23;;;15.90;1.00;;;;;;6122807;23;20159;-92
2022/08/06 01:27:57;;;;;;;4.50;1.57;;;15.90;1.00;;;;;;6118344;23;20166;-93
2022/08/06 01:30:32;;;;;;;5.03;1.90;;;15.80;1.00;;;;;;6091173;23;20155;-93
2022/08/06 01:33:23;;;;;;;5.30;1.60;;;15.90;1.00;;;;;;6088883;23;20158;-93
2022/08/06 01:36:05;;;;;;;4.73;2.20;;;15.80;1.00;;;;;;6131026;23;20143;-90
2022/08/06 01:38:49;;;;;;;4.17;1.40;;;15.90;1.00;;;;;;6113708;23;20158;-90
2022/08/06 01:41:52;;;;;;;4.37;1.50;;;15.80;1.00;;;;;;6086438;23;20167;-94
2022/08/06 01:44:31;;;;;;;4.60;1.47;;;15.70;1.00;;;;;;6104607;23;20159;-93
2022/08/06 01:47:09;;;;;;;2.77;1.30;;;15.80;1.00;;;;;;6118147;23;20147;-92
2022/08/06 01:49:40;;;;;;;5.73;2.23;;;15.80;1.00;;;;;;6121349;23;20151;-91
2022/08/06 01:52:25;;;;;;;5.17;1.50;;;15.90;1.00;;;;;;6100167;23;20143;-92
2022/08/06 01:54:58;;;;;;;5.83;2.20;;;15.90;1.00;;;;;;6130117;23;20146;-90
2022/08/06 01:57:26;;;;;;;4.33;1.30;;;15.90;1.00;;;;;;6099069;23;20139;-91
2022/08/06 01:59:56;;;;;;;4.57;1.70;;;16.00;1.00;;;;;;6120957;23;20210;-94
2022/08/06 02:02:37;;;;;;;3.63;1.40;;;16.00;1.00;;;;;;6121623;23;20158;-91
2022/08/06 02:05:05;;;;;;;4.67;1.70;;;16.10;1.00;;;;;;6123893;23;20155;-93
2022/08/06 02:07:38;;;;;;;3.77;1.40;;;16.20;1.00;;;;;;6129179;23;20142;-89
2022/08/06 02:10:26;;;;;;;5.87;1.70;;;16.20;1.00;;;;;;6155597;23;20194;-90
2022/08/06 02:12:54;;;;;;;6.90;1.70;;;16.20;1.00;;;;;;6130580;23;20158;-88
2022/08/06 02:15:28;;;;;;;3.87;1.43;;;16.30;1.00;;;;;;6130969;23;20145;-90
2022/08/06 02:18:07;;;;;;;3.20;1.30;;;16.30;1.00;;;;;;6155947;23;20220;-91
2022/08/06 02:20:53;;;;;;;5.73;1.87;;;16.40;1.00;;;;;;6130765;23;20183;-90
2022/08/06 02:23:24;;;;;;;5.23;1.60;;;16.60;1.00;;;;;;6106549;23;20171;-93
2022/08/06 02:25:55;;;;;;;5.57;1.80;;;16.60;1.00;;;;;;6106866;23;20199;-92
2022/08/06 02:28:46;;;;;;;5.77;2.00;;;16.70;1.00;;;;;;6127763;23;20163;-89
2022/08/06 02:31:18;;;;;;;6.07;1.73;;;16.60;1.00;;;;;;6120290;23;20159;-91
2022/08/06 02:33:47;;;;;;;4.20;1.60;;;16.30;1.00;;;;;;6116632;23;20158;-92
2022/08/06 02:37:08;;;;;;;10.63;1.90;;;16.00;1.00;;;;;;6115093;23;20163;-92
2022/08/06 02:39:55;;;;;;;4.93;1.60;;;16.00;1.00;;;;;;6116460;23;20183;-91
2022/08/06 02:42:23;;;;;;;4.40;1.90;;;16.00;1.00;;;;;;6115906;23;20147;-91
2022/08/06 02:45:04;;;;;;;6.87;1.87;;;16.00;1.00;;;;;;6116474;23;20148;-90
2022/08/06 02:48:09;;;;;;;5.53;1.60;;;16.00;1.00;;;;;;6116819;23;20185;-88
2022/08/06 02:50:51;;;;;;;4.50;1.67;;;16.00;1.00;;;;;;6121896;23;20163;-88
2022/08/06 02:53:23;;;;;;;7.80;1.93;;;16.00;1.00;;;;;;6124941;23;20138;-90
2022/08/06 02:56:00;;;;;;;5.00;1.40;;;16.10;1.00;;;;;;6125056;23;20163;-90
2022/08/06 02:58:52;;;;;;;5.53;1.47;;;16.10;1.00;;;;;;6120336;23;20155;-90
2022/08/06 03:01:51;;;;;;;4.40;1.70;;;16.20;1.00;;;;;;6120897;23;20214;-91
2022/08/06 03:04:23;;;;;;;6.10;1.70;;;16.30;1.00;;;;;;6103181;23;20186;-88
2022/08/06 03:06:57;;;;;;;5.60;1.50;;;16.50;1.00;;;;;;6121546;23;20170;-91
2022/08/06 03:09:26;;;;;;;4.47;1.57;;;16.60;1.00;;;;;;6117760;23;20175;-93
2022/08/06 03:11:55;;;;;;;5.20;1.73;;;16.70;1.00;;;;;;6121477;23;20171;-89
2022/08/06 03:14:26;;;;;;;4.97;1.90;;;16.60;1.00;;;;;;6120123;23;20206;-94
2022/08/06 03:16:59;;;;;;;5.43;2.10;;;16.80;1.00;;;;;;6141234;23;20135;-92
2022/08/06 03:19:30;;;;;;;4.80;1.90;;;16.80;1.00;;;;;;6114049;23;20238;-94
2022/08/06 03:21:58;;;;;;;3.10;1.90;;;16.80;1.00;;;;;;6140708;23;20142;-91
2022/08/06 03:24:26;;;;;;;8.03;1.93;;;16.60;1.00;;;;;;6117753;23;20182;-90
2022/08/06 03:26:59;;;;;;;5.00;1.67;;;16.40;1.00;;;;;;6113298;23;20254;-94
2022/08/06 03:29:28;;;;;;;6.97;1.83;;;16.40;1.00;;;;;;6134257;23;20198;-93
2022/08/06 03:31:58;;;;;;;4.17;1.93;;;16.40;1.00;;;;;;6087288;23;20227;-93
2022/08/06 03:34:28;;;;;;;5.70;1.80;;;16.30;1.00;;;;;;6109839;23;20151;-93
2022/08/06 03:36:59;;;;;;;6.10;1.97;;;16.20;1.00;;;;;;6111505;23;20155;-93
2022/08/06 03:39:28;;;;;;;6.17;1.87;;;16.00;1.00;;;;;;6115705;23;20619;-95
2022/08/06 03:42:03;;;;;;;6.93;1.73;;;15.90;1.00;;;;;;6142496;23;20139;-95
2022/08/06 03:44:29;;;;;;;7.10;2.27;;;16.10;1.00;;;;;;6114401;23;20166;-95
2022/08/06 03:47:04;;;;;;;7.40;2.47;;;16.20;1.00;;;;;;6092993;23;20159;-95
2022/08/06 03:49:48;;;;;;;5.80;1.90;;;16.20;1.00;;;;;;6116747;23;20180;-92
2022/08/06 03:52:21;;;;;;;5.03;2.20;;;16.20;1.00;;;;;;6097236;23;20170;-94
2022/08/06 03:54:50;;;;;;;7.80;1.90;;;16.30;1.00;;;;;;6118182;23;20153;-95
2022/08/06 03:57:27;;;;;;;5.63;1.80;;;16.40;1.00;;;;;;6121265;23;20159;-93
2022/08/06 04:00:00;;;;;;;7.37;2.23;;;16.30;1.00;;;;;;6122635;23;20182;-93
2022/08/06 04:02:33;;;;;;;4.60;2.10;;;16.20;1.00;;;;;;6122673;23;20143;-94
2022/08/06 04:05:00;;;;;;;4.87;1.60;;;16.10;1.00;;;;;;6142257;23;20202;-95
2022/08/06 04:07:29;;;;;;;3.07;1.63;;;15.90;1.00;;;;;;6095073;23;20167;-95
2022/08/06 04:09:55;;;;;;;5.77;1.80;;;16.10;1.00;;;;;;6094832;23;20239;-94
2022/08/06 04:12:21;;;;;;;4.57;2.03;;;16.20;1.00;;;;;;6122438;23;20188;-90
2022/08/06 04:14:48;;;;;;;5.83;1.80;;;16.10;1.00;;;;;;6125083;23;20140;-91
2022/08/06 04:17:19;;;;;;;6.90;2.10;;;16.00;1.00;;;;;;6098604;23;20257;-93
2022/08/06 04:19:51;;;;;;;4.60;2.00;;;16.00;1.00;;;;;;6095125;23;20223;-91
2022/08/06 04:22:18;;;;;;;5.67;1.70;;;15.80;1.00;;;;;;6063934;23;20204;-91
2022/08/06 04:24:53;;;;;;;6.67;1.90;;;15.80;1.00;;;;;;6083943;23;20489;-94
2022/08/06 04:27:23;;;;;;;5.57;1.90;;;15.80;1.00;;;;;;6083898;23;20158;-94
2022/08/06 04:29:53;;;;;;;4.07;1.60;;;15.80;1.00;;;;;;6095864;23;20187;-90
2022/08/06 04:32:22;;;;;;;4.90;1.90;;;15.60;1.00;;;;;;6068797;23;20155;-92
2022/08/06 04:34:51;;;;;;;4.13;1.80;;;15.50;1.00;;;;;;6088460;23;20445;-93
2022/08/06 04:37:24;;;;;;;6.27;1.97;;;15.50;1.00;;;;;;6097309;23;20200;-88
2022/08/06 04:39:50;;;;;;;5.17;2.20;;;15.50;1.00;;;;;;6100668;23;20187;-89
2022/08/06 04:42:44;;;;;;;5.70;2.07;;;15.70;1.00;;;;;;6124977;23;20144;-88
2022/08/06 04:45:14;;;;;;;6.30;2.03;;;15.80;1.00;;;;;;6119675;23;20160;-90
2022/08/06 04:48:23;;;;;;;5.80;2.23;;;15.90;1.00;;;;;;6088751;23;20176;-90
2022/08/06 04:51:12;;;;;;;7.77;2.10;;;15.90;1.00;;;;;;6079581;23;20306;-90
2022/08/06 04:57:01;;;;;;;3.63;1.70;;;16.20;1.00;;;;;;6107569;23;20150;-93
2022/08/06 04:59:28;;;;;;;5.00;2.17;;;16.20;1.00;;;;;;6062547;23;20184;-94
2022/08/06 05:01:58;;;;;;;6.07;2.03;;;16.30;1.00;;;;;;6084115;23;20151;-93
2022/08/06 05:04:32;;;;;;;4.13;1.80;;;16.40;1.00;;;;;;6087977;23;20235;-91
2022/08/06 05:07:15;;;;;;;4.23;1.93;;;16.50;1.00;;;;;;6089519;23;20167;-92
2022/08/06 05:09:53;;;;;;;5.27;2.00;;;16.60;1.00;;;;;;6101014;23;20162;-90
2022/08/06 05:12:32;;;;;;;6.53;1.90;;;16.70;1.00;;;;;;6127080;23;20152;-91
2022/08/06 05:15:26;;;;;;;4.60;2.20;;;16.70;1.00;;;;;;6099220;23;20151;-91
2022/08/06 05:18:03;;;;;;;4.63;2.00;;;16.70;1.00;;;;;;6090797;23;20175;-89
2022/08/06 05:20:33;;;;;;;4.00;1.60;;;16.80;1.00;;;;;;6087222;23;20179;-91
2022/08/06 05:23:12;;;;;;;5.17;1.93;;;16.90;1.00;;;;;;6084334;23;20157;-91
2022/08/06 05:25:53;;;;;;;4.17;2.10;;;17.00;1.00;;;;;;6087110;23;20151;-92
2022/08/06 05:28:22;;;;;;;4.83;2.10;;;17.10;1.00;;;;;;6065776;23;20157;-93
2022/08/06 05:30:54;;;;;;;6.50;2.10;;;17.10;1.00;;;;;;6085364;23;20211;-90
2022/08/06 05:33:36;;;;;;;5.40;2.00;;;17.20;1.00;;;;;;6086682;23;20187;-94
2022/08/06 05:36:03;;;;;;;5.13;2.30;;;17.20;1.00;;;;;;6058978;23;20157;-94
2022/08/06 05:38:36;;;;;;;4.53;1.87;;;17.30;1.00;;;;;;6081913;23;20223;-90
2022/08/06 05:41:15;;;;;;;6.43;2.03;;;17.50;1.00;;;;;;6114243;23;20168;-89
2022/08/06 05:43:43;;;;;;;7.10;2.53;;;17.50;1.00;;;;;;6089027;23;20148;-93
2022/08/06 05:46:18;;;;;;;5.70;2.30;;;17.50;1.00;;;;;;6093641;23;20216;-93
2022/08/06 05:49:05;;;;;;;6.03;2.67;;;17.60;1.00;;;;;;6085112;23;20178;-95
2022/08/06 05:51:46;;;;;;;6.83;2.40;;;17.70;1.00;;;;;;6092998;23;20158;-94
2022/08/06 05:54:30;;;;;;;7.40;2.83;;;17.80;1.00;;;;;;6089816;23;20207;-94
2022/08/06 05:57:27;;;;;;;6.23;2.40;;;18.00;1.00;;;;;;6086572;23;20151;-95
2022/08/06 06:00:09;;;;;;;5.20;2.33;;;18.10;1.00;;;;;;6088702;23;20267;-95
2022/08/06 06:02:40;;;;;;;4.93;2.33;;;18.20;99.90;;;;;;6065296;23;20161;-92
2022/08/06 06:05:11;;;;;;;6.83;2.50;;;18.30;99.90;;;;;;6087241;23;20153;-91
2022/08/06 06:07:43;;;;;;;9.80;2.63;;;18.40;99.90;;;;;;6086965;23;20157;-93
2022/08/06 06:10:17;;;;;;;5.40;2.37;;;18.40;99.90;;;;;;6093285;23;20174;-93
2022/08/06 06:12:44;;;;;;;5.90;2.50;;;18.50;99.90;;;;;;6090217;23;20226;-94
2022/08/06 06:15:21;;;;;;;9.50;2.87;;;18.40;99.90;;;;;;6113068;23;20160;-93
2022/08/06 06:18:06;;;;;;;7.03;2.13;;;18.40;99.90;;;;;;6085286;23;20156;-92
2022/08/06 06:21:01;;;;;;;6.83;2.03;;;18.40;99.90;;;;;;6111061;23;20206;-90
2022/08/06 06:24:03;;;;;;;6.10;2.10;;;18.10;99.90;;;;;;6110054;23;20591;-93
2022/08/06 06:26:50;;;;;;;7.20;2.43;;;17.90;99.90;;;;;;6000062;23;20247;-90
2022/08/06 06:29:35;;;;;;;7.57;1.93;;;17.60;99.90;;;;;;6112033;23;20159;-94
2022/08/06 06:32:41;;;;;;;4.37;1.83;;;17.60;1.00;;;;;;6110745;23;20162;-88
2022/08/06 06:35:16;;;;;;;5.43;1.43;;;17.60;1.00;;;;;;6084796;23;20596;-93
2022/08/06 06:37:54;;;;;;;4.67;1.60;;;17.50;1.00;;;;;;6105444;23;20207;-95
2022/08/06 06:40:39;;;;;;;6.77;1.50;;;17.50;1.00;;;;;;6104132;23;20711;-93
2022/08/06 06:43:09;;;;;;;6.97;1.80;;;17.60;1.00;;;;;;6107113;23;20150;-94
2022/08/06 06:46:04;;;;;;;6.30;1.80;;;17.70;1.00;;;;;;6107230;23;20147;-93
2022/08/06 06:48:41;;;;;;;7.83;1.73;;;17.80;99.90;;;;;;6118217;23;20196;-93
2022/08/06 06:51:35;;;;;;;6.90;2.33;;;17.80;1.00;;;;;;6114139;23;20599;-93
2022/08/06 06:54:26;;;;;;;5.60;1.60;;;17.70;1.00;;;;;;6111471;23;20630;-93
2022/08/06 06:56:56;;;;;;;8.47;1.63;;;17.70;1.00;;;;;;6104193;23;20236;-94
2022/08/06 06:59:38;;;;;;;6.13;1.60;;;17.60;1.00;;;;;;6107770;23;20550;-96
2022/08/06 07:02:06;;;;;;;6.27;1.80;;;17.60;1.00;;;;;;6103551;23;20165;-93
2022/08/06 07:04:35;;;;;;;7.10;1.83;;;17.60;1.00;;;;;;6106584;23;20151;-95
2022/08/06 07:07:04;;;;;;;5.27;1.60;;;17.50;1.00;;;;;;6121383;23;20129;-91
2022/08/06 07:09:35;;;;;;;9.23;2.00;;;17.50;1.00;;;;;;6123050;23;20168;-95
2022/08/06 07:12:02;;;;;;;5.70;1.70;;;17.60;1.00;;;;;;6112817;23;20625;-94
2022/08/06 07:17:54;;;;;;;4.83;1.80;;;17.40;1.00;;;;;;6111645;23;20274;-94
2022/08/06 07:20:31;;;;;;;4.87;1.83;;;17.50;1.00;;;;;;6084212;23;20219;-95
2022/08/06 07:23:03;;;;;;;6.23;1.80;;;17.50;1.00;;;;;;6059718;23;20154;-93
2022/08/06 07:25:36;;;;;;;4.73;1.80;;;17.60;1.00;;;;;;6081944;23;20176;-94
2022/08/06 07:28:05;;;;;;;6.07;1.73;;;17.60;1.00;;;;;;6076794;23;20242;-94
2022/08/06 07:30:35;;;;;;;6.17;2.13;;;17.70;1.00;;;;;;6100817;23;20144;-93
2022/08/06 07:33:03;;;;;;;5.73;1.80;;;17.70;1.00;;;;;;6100317;23;20147;-91
2022/08/06 07:35:31;;;;;;;8.80;1.93;;;17.80;1.00;;;;;;6076517;23;20173;-93
2022/08/06 07:38:04;;;;;;;7.07;1.87;;;17.80;1.00;;;;;;6125361;23;20158;-91
2022/08/06 07:40:40;;;;;;;7.90;2.50;;;17.90;1.00;;;;;;6097820;23;20195;-95
2022/08/06 07:43:25;;;;;;;7.80;2.23;;;18.10;1.00;;;;;;6091671;23;20157;-96
2022/08/06 07:45:56;;;;;;;8.10;2.23;;;18.30;1.00;;;;;;6083677;23;20209;-96
2022/08/06 07:48:55;;;;;;;4.90;1.40;;;18.40;99.90;;;;;;6056399;23;20161;-96
2022/08/06 07:51:25;;;;;;;6.03;1.37;;;18.40;99.90;;;;;;6082113;23;20176;-95
2022/08/06 07:53:58;;;;;;;7.43;1.50;;;18.30;99.90;;;;;;6060286;23;20160;-94
2022/08/06 07:56:29;;;;;;;5.80;1.27;;;18.40;99.90;;;;;;6084875;23;20145;-95
2022/08/06 07:58:58;;;;;;;5.07;1.40;;;18.30;99.90;;;;;;6062625;23;20167;-94
2022/08/06 08:01:28;;;;;;;6.40;1.20;;;18.20;99.90;;;;;;6113472;23;20142;-95
2022/08/06 08:07:49;;;;;;;6.30;1.60;;;18.10;99.90;;;;;;6124664;23;20155;-88
2022/08/06 08:10:17;;;;;;;7.83;1.10;;;18.20;99.90;;;;;;6094749;23;20565;-92
2022/08/06 08:12:44;;;;;;;3.93;1.40;;;18.20;99.90;;;;;;6091475;23;20620;-93
2022/08/06 08:15:22;;;;;;;4.87;1.57;;;18.20;99.90;;;;;;6111674;23;20153;-91
2022/08/06 08:18:33;;;;;;;4.17;1.27;;;18.30;99.90;;;;;;6110805;23;20152;-92
2022/08/06 08:21:20;;;;;;;3.37;1.50;;;18.30;99.90;;;;;;6112985;23;20234;-92
2022/08/06 08:24:25;;;;;;;5.83;1.30;;;18.30;99.90;;;;;;6112431;23;20141;-91
2022/08/06 08:26:59;;;;;;;3.93;1.20;;;18.20;99.90;;;;;;6105982;23;20158;-91
2022/08/06 08:29:26;;;;;;;4.17;1.27;;;18.10;99.90;;;;;;6110058;23;20177;-93
2022/08/06 08:32:02;;;;;;;4.03;1.40;;;18.20;99.90;;;;;;6110685;23;20156;-90
2022/08/06 08:34:30;;;;;;;3.10;1.03;;;18.30;99.90;;;;;;6124417;23;20224;-92
2022/08/06 08:37:02;;;;;;;6.47;1.70;;;18.40;99.90;;;;;;6122814;23;20155;-95
2022/08/06 08:39:46;;;;;;;4.50;1.37;;;18.40;99.90;;;;;;6115841;23;20188;-91
2022/08/06 08:43:12;;;;;;;4.60;1.33;;;18.50;99.90;;;;;;6117490;23;20146;-92
2022/08/06 08:46:23;;;;;;;4.90;1.50;;;18.40;99.90;;;;;;6116554;23;20145;-92
2022/08/06 08:49:43;;;;;;;3.73;1.20;;;18.60;99.90;;;;;;6117598;23;20137;-92
2022/08/06 08:52:33;;;;;;;5.17;1.33;;;18.70;62.10;;;;;;6119753;23;20148;-94
2022/08/06 08:55:10;;;;;;;3.37;1.30;;;18.70;2.10;;;;;;6100445;23;20155;-92
2022/08/06 08:58:00;;;;;;;3.03;1.03;;;18.60;99.90;;;;;;6073173;23;20247;-90
2022/08/06 09:00:39;;;;;;;4.23;1.10;;;18.70;99.90;;;;;;6094758;23;20202;-91
2022/08/06 09:03:28;;;;;;;3.30;1.40;;;18.70;78.40;;;;;;6090063;23;20210;-89
2022/08/06 09:06:32;;;;;;;3.60;1.30;;;18.70;99.90;;;;;;6093189;23;20174;-90
2022/08/06 09:09:39;;;;;;;4.10;1.13;;;18.70;93.90;;;;;;6091521;23;20178;-91
2022/08/06 09:12:11;;;;;;;3.37;1.00;;;18.60;99.90;;;;;;6090526;23;20151;-91
2022/08/06 09:14:46;;;;;;;3.43;1.00;;;18.60;73.40;;;;;;6085212;23;20149;-93
2022/08/06 09:17:58;;;;;;;6.07;1.27;;;18.80;15.40;;;;;;6067545;23;20160;-92
2022/08/06 09:20:37;;;;;;;3.10;0.93;;;19.00;1.00;;;;;;6094980;23;20181;-91
2022/08/06 09:23:08;;;;;;;5.03;1.40;;;18.90;1.00;;;;;;6061975;23;20162;-90
2022/08/06 09:26:04;;;;;;;5.00;1.07;;;18.90;1.00;;;;;;6094747;23;20132;-89
2022/08/06 09:28:59;;;;;;;3.87;1.03;;;18.90;1.00;;;;;;6093221;23;20133;-90
2022/08/06 09:35:06;;;;;;;3.00;1.20;;;18.80;1.00;;;;;;6090159;23;20171;-92
2022/08/06 09:37:50;;;;;;;4.70;1.27;;;18.80;1.00;;;;;;6084608;23;20164;-95
2022/08/06 09:40:26;;;;;;;5.17;1.23;;;18.90;1.00;;;;;;6081631;23;20260;-94
2022/08/06 09:43:28;;;;;;;3.00;0.90;;;19.00;1.00;;;;;;6037081;23;20161;-95
2022/08/06 09:49:42;;;;;;;3.80;1.30;;;19.00;1.00;;;;;;6090980;23;20176;-94
2022/08/06 09:52:31;;;;;;;2.23;1.00;;;19.20;1.00;;;;;;6067663;23;20651;-93
2022/08/06 09:55:35;;;;;;;3.60;1.10;;;19.20;1.00;;;;;;6072666;23;20150;-88
2022/08/06 09:58:07;;;;;;;4.57;1.20;;;19.20;99.90;;;;;;6072716;23;20203;-89
2022/08/06 10:00:49;;;;;;;5.20;1.27;;;19.30;99.90;;;;;;6094956;23;20272;-89
2022/08/06 10:03:15;;;;;;;6.27;1.40;;;19.60;99.90;;;;;;6040430;23;20543;-91
2022/08/06 10:06:22;;;;;;;4.10;1.30;;;19.60;99.90;;;;;;6065658;23;20141;-92
2022/08/06 10:12:26;;;;;;;3.03;1.20;;;19.40;1.00;;;;;;6091346;23;20147;-93
2022/08/06 10:15:31;;;;;;;4.43;1.40;;;19.70;1.00;;;;;;6087639;23;20163;-91
2022/08/06 10:19:06;;;;;;;2.80;1.00;;;19.80;94.60;;;;;;6063276;23;20166;-89
2022/08/06 10:21:44;;;;;;;3.87;1.23;;;20.00;99.90;;;;;;6092252;23;20169;-89
2022/08/06 10:24:46;;;;;;;1.73;0.70;;;20.00;99.90;;;;;;6088430;23;20167;-90
2022/08/06 10:27:38;;;;;;;1.90;0.80;;;20.10;99.90;;;;;;6066436;23;20155;-91
2022/08/06 10:30:54;;;;;;;2.70;0.87;;;20.00;1.00;;;;;;6064923;23;20167;-91
2022/08/06 10:34:04;;;;;;;3.60;0.70;;;20.00;99.90;;;;;;6062253;23;20157;-90
2022/08/06 10:37:22;;;;;;;2.20;0.70;;;20.30;99.90;;;;;;6088267;23;20167;-92
2022/08/06 10:40:00;;;;;;;1.47;0.70;;;20.50;99.90;;;;;;6042147;23;20199;-92
2022/08/06 10:42:39;;;;;;;2.50;0.83;;;20.50;99.90;;;;;;6067720;23;20156;-89
2022/08/06 10:45:26;;;;;;;1.90;0.90;;;20.50;1.00;;;;;;6090533;23;20195;-92
2022/08/06 10:48:12;;;;;;;2.03;0.80;;;20.70;99.90;;;;;;6064382;23;20348;-91
2022/08/06 10:50:42;;;;;;;2.80;0.70;;;20.50;1.00;;;;;;6064305;23;20160;-90
2022/08/06 10:53:11;;;;;;;3.00;0.90;;;20.60;99.90;;;;;;6040498;23;20239;-91
2022/08/06 10:56:10;;;;;;;3.17;0.90;;;21.00;1.00;;;;;;6090309;23;20155;-92
2022/08/06 10:59:05;;;;;;;3.70;1.30;;;21.10;99.90;;;;;;6085665;23;20152;-90
2022/08/06 11:01:43;;;;;;;2.83;1.10;;;21.00;99.90;;;;;;6090840;23;20168;-94
2022/08/06 11:04:50;;;;;;;2.93;1.10;;;21.00;1.00;;;;;;6065757;23;20240;-90
2022/08/06 11:07:46;;;;;;;2.30;0.73;;;21.10;1.00;;;;;;6067097;23;20149;-90
2022/08/06 11:17:00;;;;;;;1.47;0.63;;;21.40;1.00;;;;;;6089306;23;20246;-95
2022/08/06 11:19:55;;;;;;;2.80;0.80;;;21.40;1.00;;;;;;6063785;23;20164;-96
2022/08/06 11:22:42;;;;;;;2.87;0.87;;;21.30;24.80;;;;;;6062859;23;20152;-93
2022/08/06 11:25:37;;;;;;;2.40;0.87;;;21.30;99.90;;;;;;6044025;23;20149;-96
2022/08/06 11:28:45;;;;;;;2.90;1.00;;;21.40;1.00;;;;;;6083309;23;20156;-96
2022/08/06 11:31:37;;;;;;;2.70;0.70;;;21.40;1.00;;;;;;5976404;24;20214;-95
2022/08/06 11:34:14;;;;;;;2.73;1.07;;;21.30;1.00;;;;;;6084152;23;20164;-96
2022/08/06 11:43:56;;;;;;;5.20;1.13;;;21.70;1.00;;;;;;6015528;23;20162;-96
2022/08/06 11:46:44;;;;;;;3.53;1.97;;;21.90;1.00;;;;;;6060512;23;20173;-95
2022/08/06 11:49:41;;;;;;;1.90;0.87;;;22.00;1.00;;;;;;6061223;23;20217;-92
2022/08/06 11:52:37;;;;;;;3.23;0.90;;;22.10;99.90;;;;;;6053807;23;20164;-91
2022/08/06 11:55:13;;;;;;;2.70;1.30;;;22.00;99.90;;;;;;6060659;23;20159;-92
2022/08/06 11:57:48;;;;;;;2.77;1.00;;;21.80;1.00;;;;;;6061207;23;20185;-96
2022/08/06 12:00:49;;;;;;;2.00;0.90;;;21.80;1.00;;;;;;6045839;23;20181;-89
2022/08/06 12:04:14;;;;;;;4.43;0.80;;;21.90;1.00;;;;;;6049827;23;20171;-90
2022/08/06 12:07:04;;;;;;;1.53;0.80;;;21.90;99.90;;;;;;6071016;23;20138;-93
2022/08/06 12:09:38;;;;;;;3.80;1.00;;;21.70;99.90;;;;;;6040193;23;20198;-91
2022/08/06 12:12:29;;;;;;;3.33;1.40;;;21.90;99.90;;;;;;6064170;23;20169;-95
2022/08/06 12:15:03;;;;;;;3.30;1.30;;;22.20;99.90;;;;;;6099565;23;20176;-91
2022/08/06 12:18:21;;;;;;;2.90;1.10;;;22.30;99.90;;;;;;6104902;23;20149;-89
2022/08/06 12:20:49;;;;;;;2.07;1.23;;;21.80;99.90;;;;;;6040646;23;20205;-91
2022/08/06 12:23:41;;;;;;;;;;;;;;;;;;;;;
2022/08/06 12:26:44;;;;;;;4.27;1.23;;;21.90;99.90;;;;;;6122906;23;20173;-91
2022/08/06 12:29:29;;;;;;;3.47;1.40;;;22.40;99.90;;;;;;6081228;23;20150;-91
2022/08/06 12:31:58;;;;;;;1.43;1.00;;;22.60;99.90;;;;;;6098242;23;20212;-91
2022/08/06 12:35:09;;;;;;;;;;;;;;;;;;;;;
2022/08/06 12:38:08;;;;;;;2.30;0.90;;;22.40;99.90;;;;;;6121304;23;20154;-90
2022/08/06 12:41:13;;;;;;;4.63;1.50;;;22.40;99.90;;;;;;6124874;23;20167;-91
2022/08/06 12:43:58;;;;;;;4.43;1.40;;;22.20;90.80;;;;;;6099596;23;20157;-91
2022/08/06 12:46:43;;;;;;;2.70;1.00;;;21.90;99.90;;;;;;6098792;23;20137;-92
2022/08/06 12:52:41;;;;;;;2.10;1.20;;;22.50;74.70;;;;;;6124764;23;20148;-93
2022/08/06 12:55:18;;;;;;;2.17;1.30;;;22.70;31.50;;;;;;6098253;23;20151;-92
2022/08/06 12:58:04;;;;;;;2.03;1.00;;;22.40;3.10;;;;;;6097273;23;20209;-96
2022/08/06 13:00:36;;;;;;;1.40;0.93;;;22.40;47.60;;;;;;6120547;23;20190;-94
2022/08/06 13:03:09;;;;;;;4.10;2.17;;;22.50;35.00;;;;;;6074364;23;20206;-93
2022/08/06 13:06:13;;;;;;;3.03;1.27;;;22.40;15.40;;;;;;6097455;23;20150;-92
2022/08/06 13:08:41;;;;;;;1.80;0.93;;;22.30;21.40;;;;;;6123593;23;20154;-93
2022/08/06 13:11:14;;;;;;;3.17;1.23;;;22.20;60.50;;;;;;6096653;23;20179;-94
2022/08/06 13:13:53;;;;;;;3.40;1.20;;;22.20;23.10;;;;;;6097276;23;20178;-95
2022/08/06 13:16:40;;;;;;;2.27;1.20;;;22.20;27.60;;;;;;6098277;23;20155;-95
2022/08/06 13:19:18;;;;;;;2.97;1.23;;;22.30;19.40;;;;;;6074411;23;20139;-95
2022/08/06 13:22:11;;;;;;;3.77;1.43;;;22.30;10.30;;;;;;6121039;23;20160;-94
2022/08/06 13:24:45;;;;;;;3.10;1.17;;;22.40;29.80;;;;;;6118262;23;20156;-95
2022/08/06 13:27:43;;;;;;;4.13;1.20;;;22.60;14.80;;;;;;6097606;23;20204;-95
2022/08/06 13:30:12;;;;;;;2.17;1.27;;;22.50;1.00;;;;;;6096673;23;20142;-94
2022/08/06 13:32:48;;;;;;;3.77;1.30;;;22.40;21.90;;;;;;6098475;23;20150;-96
2022/08/06 13:35:40;;;;;;;4.97;1.13;;;22.40;42.10;;;;;;6094463;23;20175;-93
2022/08/06 13:38:33;;;;;;;2.37;1.40;;;22.40;29.20;;;;;;6119045;23;20165;-96
2022/08/06 13:41:44;;;;;;;1.80;1.23;;;22.20;9.10;;;;;;6094431;23;20181;-95
2022/08/06 13:44:45;;;;;;;2.80;1.40;;;22.00;1.00;;;;;;6116344;23;20206;-95
2022/08/06 13:47:25;;;;;;;3.63;1.10;;;21.80;1.00;;;;;;6068601;23;20163;-94
2022/08/06 13:50:13;;;;;;;5.63;1.50;;;21.90;1.00;;;;;;6123843;23;20147;-91
2022/08/06 13:53:26;;;;;;;3.03;1.20;;;22.20;1.00;;;;;;6124990;23;20149;-89
2022/08/06 13:55:56;;;;;;;2.57;1.23;;;22.50;1.00;;;;;;6101317;23;20145;-90
2022/08/06 13:58:31;;;;;;;3.10;1.37;;;22.70;1.00;;;;;;6078393;23;20156;-88
2022/08/06 14:01:00;;;;;;;2.97;1.40;;;22.70;1.00;;;;;;6101367;23;20199;-91
2022/08/06 14:03:35;;;;;;;3.60;1.40;;;22.90;1.00;;;;;;6101392;23;20147;-90
2022/08/06 14:06:54;;;;;;;3.10;1.33;;;23.10;1.00;;;;;;6124150;23;20214;-90
2022/08/06 14:09:32;;;;;;;4.67;1.33;;;23.40;1.00;;;;;;6100058;23;20163;-92
2022/08/06 14:12:10;;;;;;;2.60;1.70;;;23.30;1.00;;;;;;6078059;23;20142;-88
2022/08/06 14:14:39;;;;;;;3.80;1.67;;;23.00;1.00;;;;;;6101270;23;20169;-91
2022/08/06 14:17:06;;;;;;;3.67;1.90;;;22.60;1.00;;;;;;6100315;23;20180;-90
2022/08/06 14:19:38;;;;;;;2.70;1.90;;;22.30;1.00;;;;;;6100736;23;20240;-91
2022/08/06 14:22:39;;;;;;;2.33;1.60;;;22.30;1.00;;;;;;6101762;23;20176;-91
2022/08/06 14:29:01;;;;;;;2.70;1.60;;;22.50;1.00;;;;;;6124716;23;20143;-91
2022/08/06 14:34:55;;;;;;;4.20;1.43;;;22.50;1.00;;;;;;6125321;23;20218;-89
2022/08/06 14:38:04;;;;;;;2.43;1.30;;;22.60;1.00;;;;;;6100537;23;20174;-91
2022/08/06 14:46:32;;;;;;;5.07;1.50;;;23.70;1.00;;;;;;6121312;23;20158;-95
2022/08/06 14:49:45;;;;;;;3.17;1.40;;;23.80;1.00;;;;;;6122362;23;20158;-95
2022/08/06 14:55:40;;;;;;;2.23;1.57;;;23.10;1.00;;;;;;6126341;23;20156;-90
2022/08/06 14:58:12;;;;;;;3.47;1.40;;;22.80;1.00;;;;;;6101243;23;20165;-88
2022/08/06 15:01:20;;;;;;;3.30;1.57;;;22.60;1.00;;;;;;6103148;23;20205;-92
2022/08/06 15:03:56;;;;;;;2.20;1.27;;;22.60;1.00;;;;;;6099782;23;20147;-94